Time,TemperatureF,DewpointF,PressureIn,WindDirection,WindDirectionDegrees,WindSpeedMPH,WindSpeedGustMPH,Humidity,HourlyPrecipIn,Conditions,Clouds,dailyrainin,SoftwareType,DateUTC
2013-08-20 00:02:00,71.1,70.8,29.93,SSW,202,0.0,-999.0,99,-99.99,,,0.00,Acu-Link.com,2013-08-20 04:02:00,
2013-08-20 00:17:00,71.2,70.9,29.93,SSW,202,0.0,-999.0,99,-99.99,,,0.00,Acu-Link.com,2013-08-20 04:17:00,
2013-08-20 00:33:00,71.2,70.9,29.93,SSW,202,0.0,-999.0,99,-99.99,,,0.00,Acu-Link.com,2013-08-20 04:33:00,
2013-08-20 00:48:00,71.2,70.9,29.93,SSW,202,0.0,-999.0,99,-99.99,,,0.00,Acu-Link.com,2013-08-20 04:48:00,
2013-08-20 01:03:00,71.2,70.9,29.93,SSW,202,0.0,-999.0,99,-99.99,,,0.00,Acu-Link.com,2013-08-20 05:03:00,
2013-08-20 01:18:00,71.4,71.1,29.93,SSW,202,0.0,-999.0,99,-99.99,,,0.00,Acu-Link.com,2013-08-20 05:18:00,
2013-08-20 01:33:00,71.4,71.1,29.93,SSW,202,0.0,-999.0,99,-99.99,,,0.00,Acu-Link.com,2013-08-20 05:33:00,
2013-08-20 01:48:00,71.2,70.9,29.92,SSW,202,0.0,-999.0,99,-99.99,,,0.00,Acu-Link.com,2013-08-20 05:48:00,
2013-08-20 02:03:00,71.1,70.8,29.93,SSW,202,0.0,-999.0,99,-99.99,,,0.00,Acu-Link.com,2013-08-20 06:03:00,
2013-08-20 02:18:00,70.7,70.4,29.92,SSW,202,0.0,-999.0,99,-99.99,,,0.00,Acu-Link.com,2013-08-20 06:18:00,
2013-08-20 02:33:00,70.5,70.2,29.92,SSW,202,0.0,-999.0,99,-99.99,,,0.00,Acu-Link.com,2013-08-20 06:33:00,
2013-08-20 02:49:00,70.2,69.9,29.93,SSW,202,0.0,-999.0,99,-99.99,,,0.00,Acu-Link.com,2013-08-20 06:49:00,
2013-08-20 03:04:00,70.0,69.7,29.92,SSW,202,0.0,-999.0,99,-99.99,,,0.00,Acu-Link.com,2013-08-20 07:04:00,
2013-08-20 03:19:00,69.6,69.3,29.93,SSW,202,0.0,-999.0,99,-99.99,,,0.00,Acu-Link.com,2013-08-20 07:19:00,
2013-08-20 03:34:00,69.3,69.0,29.92,SSW,202,0.0,-999.0,99,-99.99,,,0.00,Acu-Link.com,2013-08-20 07:34:00,
2013-08-20 03:49:00,69.1,68.8,29.92,SSW,202,0.0,-999.0,99,-99.99,,,0.00,Acu-Link.com,2013-08-20 07:49:00,
2013-08-20 04:04:00,68.9,68.6,29.91,SSW,202,0.0,-999.0,99,-99.99,,,0.00,Acu-Link.com,2013-08-20 08:04:00,
2013-08-20 04:19:00,68.9,68.6,29.92,SSW,202,0.0,-999.0,99,-99.99,,,0.00,Acu-Link.com,2013-08-20 08:19:00,
2013-08-20 04:34:00,68.9,68.6,29.92,SSW,202,0.0,-999.0,99,-99.99,,,0.00,Acu-Link.com,2013-08-20 08:34:00,
2013-08-20 04:50:00,68.5,68.2,29.92,SSW,202,0.0,-999.0,99,-99.99,,,0.00,Acu-Link.com,2013-08-20 08:50:00,
2013-08-20 05:05:00,68.5,68.2,29.91,SSW,202,0.0,-999.0,99,-99.99,,,0.00,Acu-Link.com,2013-08-20 09:05:00,
2013-08-20 05:20:00,68.4,68.1,29.92,SSW,202,0.0,-999.0,99,-99.99,,,0.00,Acu-Link.com,2013-08-20 09:20:00,
2013-08-20 05:35:00,68.7,68.4,29.92,SSW,202,0.0,-999.0,99,-99.99,,,0.00,Acu-Link.com,2013-08-20 09:35:00,
2013-08-20 05:50:00,68.7,68.4,29.92,SSW,202,0.0,-999.0,99,-99.99,,,0.00,Acu-Link.com,2013-08-20 09:50:00,
2013-08-20 06:05:00,69.1,68.8,29.93,SSW,202,0.0,-999.0,99,-99.99,,,0.00,Acu-Link.com,2013-08-20 10:05:00,
2013-08-20 06:20:00,68.9,68.6,29.92,SSW,202,0.0,-999.0,99,-99.99,,,0.00,Acu-Link.com,2013-08-20 10:20:00,
2013-08-20 06:35:00,68.5,68.2,29.94,SSW,202,0.0,-999.0,99,-99.99,,,0.00,Acu-Link.com,2013-08-20 10:35:00,
2013-08-20 06:51:00,68.2,67.9,29.94,SSW,202,0.0,-999.0,99,-99.99,,,0.00,Acu-Link.com,2013-08-20 10:51:00,
2013-08-20 07:06:00,68.2,67.9,29.95,SSW,202,0.0,-999.0,99,-99.99,,,0.00,Acu-Link.com,2013-08-20 11:06:00,
2013-08-20 07:21:00,68.0,67.7,29.95,SSW,202,0.0,-999.0,99,-99.99,,,0.00,Acu-Link.com,2013-08-20 11:21:00,
2013-08-20 07:36:00,67.8,67.5,29.95,SSW,202,0.0,-999.0,99,-99.99,,,0.00,Acu-Link.com,2013-08-20 11:36:00,
2013-08-20 07:51:00,68.2,67.9,29.95,SSW,202,0.0,-999.0,99,-99.99,,,0.00,Acu-Link.com,2013-08-20 11:51:00,
2013-08-20 08:06:00,69.1,68.8,29.96,SSW,202,0.0,-999.0,99,-99.99,,,0.00,Acu-Link.com,2013-08-20 12:06:00,
2013-08-20 08:21:00,70.0,69.7,29.96,SSW,202,0.0,-999.0,99,-99.99,,,0.00,Acu-Link.com,2013-08-20 12:21:00,
2013-08-20 08:36:00,70.9,70.6,29.97,SSW,202,0.0,-999.0,99,-99.99,,,0.00,Acu-Link.com,2013-08-20 12:36:00,
2013-08-20 08:51:00,72.1,71.8,29.97,SSW,202,0.0,-999.0,99,-99.99,,,0.00,Acu-Link.com,2013-08-20 12:51:00,
2013-08-20 09:07:00,73.2,72.3,29.97,SSW,202,0.0,-999.0,97,-99.99,,,0.00,Acu-Link.com,2013-08-20 13:07:00,
2013-08-20 09:22:00,74.1,72.6,29.98,SSW,202,0.0,-999.0,95,-99.99,,,0.00,Acu-Link.com,2013-08-20 13:22:00,
2013-08-20 09:37:00,74.7,72.5,29.98,SSW,202,0.0,-999.0,93,-99.99,,,0.00,Acu-Link.com,2013-08-20 13:37:00,
2013-08-20 09:52:00,75.7,73.2,29.98,SSW,202,0.0,-999.0,92,-99.99,,,0.00,Acu-Link.com,2013-08-20 13:52:00,
2013-08-20 10:07:00,77.0,72.8,29.98,SSW,202,0.0,-999.0,87,-99.99,,,0.00,Acu-Link.com,2013-08-20 14:07:00,
2013-08-20 10:22:00,77.7,72.1,29.99,SSW,202,0.0,-999.0,83,-99.99,,,0.00,Acu-Link.com,2013-08-20 14:22:00,
2013-08-20 10:37:00,76.5,72.3,30.00,SSW,202,0.0,-999.0,87,-99.99,,,0.00,Acu-Link.com,2013-08-20 14:37:00,
2013-08-20 10:52:00,79.3,73.3,30.00,SSW,202,0.0,-999.0,82,-99.99,,,0.00,Acu-Link.com,2013-08-20 14:52:00,
2013-08-20 11:07:00,80.4,72.9,29.99,South,180,0.0,-999.0,78,-99.99,,,0.00,Acu-Link.com,2013-08-20 15:07:00,
2013-08-20 11:23:00,81.7,74.9,29.99,SSW,202,0.0,-999.0,80,-99.99,,,0.00,Acu-Link.com,2013-08-20 15:23:00,
2013-08-20 11:38:00,77.9,71.6,30.00,South,180,0.0,-999.0,81,-99.99,,,0.00,Acu-Link.com,2013-08-20 15:38:00,
2013-08-20 11:53:00,77.4,72.5,30.00,South,180,0.0,-999.0,85,-99.99,,,0.00,Acu-Link.com,2013-08-20 15:53:00,
2013-08-20 12:08:00,78.8,72.1,30.00,South,180,1.1,-999.0,80,-99.99,,,0.00,Acu-Link.com,2013-08-20 16:08:00,
2013-08-20 12:23:00,79.7,74.4,30.00,SSW,202,0.0,-999.0,84,-99.99,,,0.00,Acu-Link.com,2013-08-20 16:23:00,
2013-08-20 12:38:00,78.6,73.7,30.00,South,180,0.0,-999.0,85,-99.99,,,0.00,Acu-Link.com,2013-08-20 16:38:00,
2013-08-20 12:53:00,80.1,73.4,30.00,SW,225,1.1,-999.0,80,-99.99,,,0.00,Acu-Link.com,2013-08-20 16:53:00,
2013-08-20 13:08:00,80.2,73.5,30.00,WSW,247,0.0,-999.0,80,-99.99,,,0.00,Acu-Link.com,2013-08-20 17:08:00,
2013-08-20 13:23:00,80.6,73.1,29.99,SW,225,0.0,-999.0,78,-99.99,,,0.00,Acu-Link.com,2013-08-20 17:23:00,
2013-08-20 13:38:00,81.3,73.8,29.98,South,180,1.7,-999.0,78,-99.99,,,0.00,Acu-Link.com,2013-08-20 17:38:00,
2013-08-20 13:54:00,83.7,74.9,29.97,SSW,202,2.7,-999.0,75,-99.99,,,0.00,Acu-Link.com,2013-08-20 17:54:00,
2013-08-20 14:09:00,84.6,74.6,29.96,West,270,3.2,-999.0,72,-99.99,,,0.00,Acu-Link.com,2013-08-20 18:09:00,
2013-08-20 14:24:00,85.3,75.6,29.95,SSW,202,1.7,-999.0,73,-99.99,,,0.00,Acu-Link.com,2013-08-20 18:24:00,
2013-08-20 14:39:00,87.6,77.4,29.95,SSE,157,0.0,-999.0,72,-99.99,,,0.00,Acu-Link.com,2013-08-20 18:39:00,
2013-08-20 14:54:00,84.2,74.6,29.94,South,180,1.7,-999.0,73,-99.99,,,0.00,Acu-Link.com,2013-08-20 18:54:00,
2013-08-20 15:09:00,82.8,76.0,29.93,South,180,0.0,-999.0,80,-99.99,,,0.00,Acu-Link.com,2013-08-20 19:09:00,
2013-08-20 15:24:00,85.5,75.0,29.93,SSW,202,0.0,-999.0,71,-99.99,,,0.00,Acu-Link.com,2013-08-20 19:24:00,
2013-08-20 15:39:00,86.2,75.7,29.92,SW,225,1.1,-999.0,71,-99.99,,,0.00,Acu-Link.com,2013-08-20 19:39:00,
2013-08-20 15:54:00,84.2,75.4,29.91,SSW,202,0.0,-999.0,75,-99.99,,,0.00,Acu-Link.com,2013-08-20 19:54:00,
2013-08-20 16:10:00,85.1,76.3,29.90,SSE,157,1.1,-999.0,75,-99.99,,,0.00,Acu-Link.com,2013-08-20 20:10:00,
2013-08-20 16:25:00,88.5,76.6,29.90,SSE,157,0.0,-999.0,68,-99.99,,,0.00,Acu-Link.com,2013-08-20 20:25:00,
2013-08-20 16:40:00,85.8,75.3,29.90,SSE,157,1.1,-999.0,71,-99.99,,,0.00,Acu-Link.com,2013-08-20 20:40:00,
2013-08-20 16:55:00,83.5,75.1,29.90,South,180,0.0,-999.0,76,-99.99,,,0.00,Acu-Link.com,2013-08-20 20:55:00,
2013-08-20 17:10:00,83.5,74.3,29.89,South,180,0.0,-999.0,74,-99.99,,,0.00,Acu-Link.com,2013-08-20 21:10:00,
2013-08-20 17:25:00,83.7,76.5,29.90,SW,225,0.0,-999.0,79,-99.99,,,0.00,Acu-Link.com,2013-08-20 21:25:00,
2013-08-20 17:40:00,85.6,75.5,29.90,SW,225,2.2,-999.0,72,-99.99,,,0.00,Acu-Link.com,2013-08-20 21:40:00,
2013-08-20 17:55:00,91.6,76.7,29.89,SSW,202,0.0,-999.0,62,-99.99,,,0.00,Acu-Link.com,2013-08-20 21:55:00,
2013-08-20 18:10:00,90.0,77.1,29.90,SSE,157,0.0,-999.0,66,-99.99,,,0.00,Acu-Link.com,2013-08-20 22:10:00,
2013-08-20 18:26:00,87.8,75.9,29.90,SSE,157,0.0,-999.0,68,-99.99,,,0.00,Acu-Link.com,2013-08-20 22:26:00,
2013-08-20 18:41:00,84.0,74.8,29.90,SSE,157,2.2,-999.0,74,-99.99,,,0.00,Acu-Link.com,2013-08-20 22:41:00,
2013-08-20 18:56:00,82.6,74.6,29.90,SSE,157,0.0,-999.0,77,-99.99,,,0.00,Acu-Link.com,2013-08-20 22:56:00,
2013-08-20 19:11:00,81.5,74.7,29.90,SSE,157,0.0,-999.0,80,-99.99,,,0.00,Acu-Link.com,2013-08-20 23:11:00,
2013-08-20 19:26:00,81.0,74.2,29.91,SSE,157,0.0,-999.0,80,-99.99,,,0.00,Acu-Link.com,2013-08-20 23:26:00,
2013-08-20 19:41:00,79.9,73.9,29.92,SSE,157,0.0,-999.0,82,-99.99,,,0.00,Acu-Link.com,2013-08-20 23:41:00,
2013-08-20 19:56:00,79.9,74.3,29.92,SSE,157,0.0,-999.0,83,-99.99,,,0.00,Acu-Link.com,2013-08-20 23:56:00,
2013-08-20 20:11:00,78.6,73.0,29.93,WSW,247,1.7,-999.0,83,-99.99,,,0.00,Acu-Link.com,2013-08-21 00:11:00,
2013-08-20 20:26:00,77.5,73.0,29.93,South,180,0.0,-999.0,86,-99.99,,,0.00,Acu-Link.com,2013-08-21 00:26:00,
2013-08-20 20:42:00,76.3,72.5,29.92,South,180,0.0,-999.0,88,-99.99,,,0.00,Acu-Link.com,2013-08-21 00:42:00,
2013-08-20 20:57:00,75.6,72.1,29.93,South,180,0.0,-999.0,89,-99.99,,,0.00,Acu-Link.com,2013-08-21 00:57:00,
2013-08-20 21:12:00,74.7,71.9,29.93,South,180,0.0,-999.0,91,-99.99,,,0.00,Acu-Link.com,2013-08-21 01:12:00,
2013-08-20 21:27:00,74.3,71.5,29.93,South,180,0.0,-999.0,91,-99.99,,,0.00,Acu-Link.com,2013-08-21 01:27:00,
2013-08-20 21:42:00,73.8,72.0,29.94,NNE,22,0.0,-999.0,94,-99.99,,,0.00,Acu-Link.com,2013-08-21 01:42:00,
2013-08-20 21:57:00,73.2,71.4,29.95,East,90,0.0,-999.0,94,-99.99,,,0.00,Acu-Link.com,2013-08-21 01:57:00,
2013-08-20 22:12:00,72.9,71.7,29.95,East,90,0.0,-999.0,96,-99.99,,,0.00,Acu-Link.com,2013-08-21 02:12:00,
2013-08-20 22:27:00,72.5,71.6,29.96,East,90,0.0,-999.0,97,-99.99,,,0.00,Acu-Link.com,2013-08-21 02:27:00,
2013-08-20 22:42:00,72.1,70.9,29.96,East,90,0.0,-999.0,96,-99.99,,,0.00,Acu-Link.com,2013-08-21 02:42:00,
2013-08-20 22:58:00,72.1,71.2,29.97,East,90,0.0,-999.0,97,-99.99,,,0.00,Acu-Link.com,2013-08-21 02:58:00,
2013-08-20 23:13:00,72.1,71.5,29.97,East,90,0.0,-999.0,98,-99.99,,,0.00,Acu-Link.com,2013-08-21 03:13:00,
2013-08-20 23:28:00,72.3,71.7,29.98,East,90,0.0,-999.0,98,-99.99,,,0.00,Acu-Link.com,2013-08-21 03:28:00,
2013-08-20 23:43:00,72.5,71.9,29.98,ENE,67,0.0,-999.0,98,-99.99,,,0.00,Acu-Link.com,2013-08-21 03:43:00,
2013-08-20 23:58:00,72.5,72.2,29.98,ENE,67,0.0,-999.0,99,-99.99,,,0.00,Acu-Link.com,2013-08-21 03:58:00,